Wood Lake, North Dakota
Current Conditions -  °F | °C
As of 10:15 AM on Sunday 25 Jan 2015 (Local Time) from KDVL Reporting Station
Overcast Overcast  
Wind Chill: 11°   Ceiling: 800
Heat Index: 18°   Visibility: 10mi
Dew Point: 10°   Wind: 5mph
Humidity: 73%   Direction: 190°S
Pressure: 30"   Gusts: NA
Location:  47.9248°N, 98.8159°W
Report Text: KDVL 251615Z AUTO 19004KT 10SM OVC008 M08/M12 A3000 RMK AO1
Loading
Personal Weather Stations






























Interactive Weather Map New forecast layout! Learn more

10-Day Weather Forecast

Advertisements
Track Severe Weather on mobile